sensor_id;sensor_type;location;lat;lon;timestamp;P1;durP1;ratioP1;P2;durP2;ratioP2
20008;SDS011;10165;42.662;23.260;2024-02-21T00:00:10;3.27;;;2.67;;
20008;SDS011;10165;42.662;23.260;2024-02-21T00:02:38;2.50;;;2.30;;
20008;SDS011;10165;42.662;23.260;2024-02-21T00:05:04;5.20;;;3.03;;
20008;SDS011;10165;42.662;23.260;2024-02-21T00:07:31;2.90;;;2.37;;
20008;SDS011;10165;42.662;23.260;2024-02-21T00:09:58;4.97;;;2.63;;
20008;SDS011;10165;42.662;23.260;2024-02-21T00:12:25;3.30;;;2.40;;
20008;SDS011;10165;42.662;23.260;2024-02-21T00:14:51;1.80;;;1.70;;
20008;SDS011;10165;42.662;23.260;2024-02-21T00:17:18;2.97;;;2.27;;
20008;SDS011;10165;42.662;23.260;2024-02-21T00:19:45;7.10;;;2.97;;
20008;SDS011;10165;42.662;23.260;2024-02-21T00:22:11;3.67;;;2.40;;
20008;SDS011;10165;42.662;23.260;2024-02-21T00:24:38;2.73;;;2.00;;
20008;SDS011;10165;42.662;23.260;2024-02-21T00:27:05;3.53;;;2.20;;
20008;SDS011;10165;42.662;23.260;2024-02-21T00:29:31;3.00;;;2.73;;
20008;SDS011;10165;42.662;23.260;2024-02-21T00:31:58;2.73;;;2.27;;
20008;SDS011;10165;42.662;23.260;2024-02-21T00:34:25;4.70;;;2.30;;
20008;SDS011;10165;42.662;23.260;2024-02-21T00:36:52;2.50;;;2.23;;
20008;SDS011;10165;42.662;23.260;2024-02-21T00:39:18;2.47;;;2.17;;
20008;SDS011;10165;42.662;23.260;2024-02-21T00:41:45;3.93;;;2.27;;
20008;SDS011;10165;42.662;23.260;2024-02-21T00:44:12;4.07;;;2.30;;
20008;SDS011;10165;42.662;23.260;2024-02-21T00:46:38;2.53;;;2.00;;
20008;SDS011;10165;42.662;23.260;2024-02-21T00:49:05;2.97;;;2.37;;
20008;SDS011;10165;42.662;23.260;2024-02-21T00:51:33;5.43;;;3.10;;
20008;SDS011;10165;42.662;23.260;2024-02-21T00:54:00;5.30;;;2.77;;
20008;SDS011;10165;42.662;23.260;2024-02-21T00:56:27;3.73;;;2.70;;
20008;SDS011;10165;42.662;23.260;2024-02-21T00:58:54;2.97;;;2.67;;
20008;SDS011;10165;42.662;23.260;2024-02-21T01:01:24;3.03;;;2.60;;
20008;SDS011;10165;42.662;23.260;2024-02-21T01:03:52;3.60;;;2.30;;
20008;SDS011;10165;42.662;23.260;2024-02-21T01:06:20;4.97;;;3.10;;
20008;SDS011;10165;42.662;23.260;2024-02-21T01:08:47;3.47;;;2.80;;
20008;SDS011;10165;42.662;23.260;2024-02-21T01:11:14;3.50;;;2.43;;
20008;SDS011;10165;42.662;23.260;2024-02-21T01:13:42;4.00;;;2.60;;
20008;SDS011;10165;42.662;23.260;2024-02-21T01:16:09;3.37;;;2.43;;
20008;SDS011;10165;42.662;23.260;2024-02-21T01:18:39;2.67;;;2.40;;
20008;SDS011;10165;42.662;23.260;2024-02-21T01:21:06;4.10;;;2.80;;
20008;SDS011;10165;42.662;23.260;2024-02-21T01:23:34;6.07;;;2.70;;
20008;SDS011;10165;42.662;23.260;2024-02-21T01:26:01;4.03;;;2.70;;
20008;SDS011;10165;42.662;23.260;2024-02-21T01:28:29;7.00;;;3.87;;
20008;SDS011;10165;42.662;23.260;2024-02-21T01:30:57;7.00;;;3.43;;
20008;SDS011;10165;42.662;23.260;2024-02-21T01:33:24;6.00;;;3.67;;
20008;SDS011;10165;42.662;23.260;2024-02-21T01:35:50;5.50;;;3.67;;
20008;SDS011;10165;42.662;23.260;2024-02-21T01:38:17;4.67;;;3.47;;
20008;SDS011;10165;42.662;23.260;2024-02-21T01:40:44;6.37;;;4.27;;
20008;SDS011;10165;42.662;23.260;2024-02-21T01:43:20;9.00;;;5.93;;
20008;SDS011;10165;42.662;23.260;2024-02-21T01:45:52;5.70;;;4.13;;
20008;SDS011;10165;42.662;23.260;2024-02-21T01:48:23;6.97;;;3.93;;
20008;SDS011;10165;42.662;23.260;2024-02-21T01:50:52;6.97;;;4.53;;
20008;SDS011;10165;42.662;23.260;2024-02-21T01:53:21;4.27;;;3.60;;
20008;SDS011;10165;42.662;23.260;2024-02-21T01:55:51;5.33;;;3.60;;
20008;SDS011;10165;42.662;23.260;2024-02-21T01:58:18;6.93;;;4.00;;
20008;SDS011;10165;42.662;23.260;2024-02-21T02:00:46;7.57;;;4.17;;
20008;SDS011;10165;42.662;23.260;2024-02-21T02:03:14;6.17;;;4.73;;
20008;SDS011;10165;42.662;23.260;2024-02-21T02:05:46;7.93;;;4.83;;
20008;SDS011;10165;42.662;23.260;2024-02-21T02:08:18;7.70;;;4.20;;
20008;SDS011;10165;42.662;23.260;2024-02-21T02:10:46;6.63;;;4.37;;
20008;SDS011;10165;42.662;23.260;2024-02-21T02:13:13;7.23;;;4.43;;
20008;SDS011;10165;42.662;23.260;2024-02-21T02:15:43;7.53;;;5.00;;
20008;SDS011;10165;42.662;23.260;2024-02-21T02:18:14;7.00;;;4.23;;
20008;SDS011;10165;42.662;23.260;2024-02-21T02:20:42;6.67;;;4.10;;
20008;SDS011;10165;42.662;23.260;2024-02-21T02:23:33;6.27;;;4.53;;
20008;SDS011;10165;42.662;23.260;2024-02-21T02:25:58;7.03;;;4.87;;
20008;SDS011;10165;42.662;23.260;2024-02-21T02:28:25;7.07;;;5.07;;
20008;SDS011;10165;42.662;23.260;2024-02-21T02:30:52;7.40;;;4.83;;
20008;SDS011;10165;42.662;23.260;2024-02-21T02:33:19;7.90;;;4.60;;
20008;SDS011;10165;42.662;23.260;2024-02-21T02:35:46;8.93;;;5.17;;
20008;SDS011;10165;42.662;23.260;2024-02-21T02:38:13;7.17;;;4.50;;
20008;SDS011;10165;42.662;23.260;2024-02-21T02:40:40;10.87;;;5.10;;
20008;SDS011;10165;42.662;23.260;2024-02-21T02:43:08;9.53;;;4.97;;
20008;SDS011;10165;42.662;23.260;2024-02-21T02:45:35;7.50;;;4.37;;
20008;SDS011;10165;42.662;23.260;2024-02-21T02:48:02;9.87;;;5.67;;
20008;SDS011;10165;42.662;23.260;2024-02-21T02:50:29;7.13;;;4.80;;
20008;SDS011;10165;42.662;23.260;2024-02-21T02:52:56;5.97;;;4.00;;
20008;SDS011;10165;42.662;23.260;2024-02-21T02:55:23;8.27;;;4.77;;
20008;SDS011;10165;42.662;23.260;2024-02-21T02:57:49;6.47;;;4.50;;
20008;SDS011;10165;42.662;23.260;2024-02-21T03:00:16;7.83;;;4.67;;
20008;SDS011;10165;42.662;23.260;2024-02-21T03:02:44;6.87;;;4.37;;
20008;SDS011;10165;42.662;23.260;2024-02-21T03:05:13;6.63;;;5.17;;
20008;SDS011;10165;42.662;23.260;2024-02-21T03:07:42;7.97;;;4.87;;
20008;SDS011;10165;42.662;23.260;2024-02-21T03:10:10;6.97;;;4.87;;
20008;SDS011;10165;42.662;23.260;2024-02-21T03:12:37;12.03;;;5.97;;
20008;SDS011;10165;42.662;23.260;2024-02-21T03:15:04;9.00;;;5.73;;
20008;SDS011;10165;42.662;23.260;2024-02-21T03:17:32;10.57;;;5.20;;
20008;SDS011;10165;42.662;23.260;2024-02-21T03:20:01;7.40;;;4.53;;
20008;SDS011;10165;42.662;23.260;2024-02-21T03:22:32;9.77;;;5.50;;
20008;SDS011;10165;42.662;23.260;2024-02-21T03:24:59;7.87;;;5.17;;
20008;SDS011;10165;42.662;23.260;2024-02-21T03:27:26;6.37;;;4.80;;
20008;SDS011;10165;42.662;23.260;2024-02-21T03:29:53;5.20;;;4.50;;
20008;SDS011;10165;42.662;23.260;2024-02-21T03:32:19;10.33;;;5.70;;
20008;SDS011;10165;42.662;23.260;2024-02-21T03:34:46;7.93;;;5.27;;
20008;SDS011;10165;42.662;23.260;2024-02-21T03:37:13;8.73;;;5.80;;
20008;SDS011;10165;42.662;23.260;2024-02-21T03:39:40;9.50;;;6.07;;
20008;SDS011;10165;42.662;23.260;2024-02-21T03:42:07;10.27;;;5.63;;
20008;SDS011;10165;42.662;23.260;2024-02-21T03:44:34;9.93;;;5.93;;
20008;SDS011;10165;42.662;23.260;2024-02-21T03:47:01;8.97;;;6.30;;
20008;SDS011;10165;42.662;23.260;2024-02-21T03:49:28;10.70;;;6.03;;
20008;SDS011;10165;42.662;23.260;2024-02-21T03:51:55;8.57;;;5.87;;
20008;SDS011;10165;42.662;23.260;2024-02-21T03:54:22;11.10;;;5.77;;
20008;SDS011;10165;42.662;23.260;2024-02-21T03:56:49;8.90;;;6.10;;
20008;SDS011;10165;42.662;23.260;2024-02-21T03:59:16;8.37;;;5.20;;
20008;SDS011;10165;42.662;23.260;2024-02-21T04:01:42;8.73;;;5.50;;
20008;SDS011;10165;42.662;23.260;2024-02-21T04:04:10;10.63;;;6.47;;
20008;SDS011;10165;42.662;23.260;2024-02-21T04:06:45;10.70;;;5.93;;
20008;SDS011;10165;42.662;23.260;2024-02-21T04:09:12;8.63;;;6.03;;
20008;SDS011;10165;42.662;23.260;2024-02-21T04:11:39;10.40;;;5.90;;
20008;SDS011;10165;42.662;23.260;2024-02-21T04:14:06;9.93;;;6.17;;
20008;SDS011;10165;42.662;23.260;2024-02-21T04:16:34;9.03;;;5.33;;
20008;SDS011;10165;42.662;23.260;2024-02-21T04:19:01;11.43;;;6.27;;
20008;SDS011;10165;42.662;23.260;2024-02-21T04:21:28;9.77;;;6.37;;
20008;SDS011;10165;42.662;23.260;2024-02-21T04:23:55;7.30;;;5.03;;
20008;SDS011;10165;42.662;23.260;2024-02-21T04:26:22;9.63;;;6.10;;
20008;SDS011;10165;42.662;23.260;2024-02-21T04:28:48;7.27;;;5.20;;
20008;SDS011;10165;42.662;23.260;2024-02-21T04:31:15;7.20;;;5.23;;
20008;SDS011;10165;42.662;23.260;2024-02-21T04:33:42;8.60;;;5.53;;
20008;SDS011;10165;42.662;23.260;2024-02-21T04:36:09;12.23;;;6.37;;
20008;SDS011;10165;42.662;23.260;2024-02-21T04:38:35;9.27;;;5.60;;
20008;SDS011;10165;42.662;23.260;2024-02-21T04:41:02;10.80;;;6.17;;
20008;SDS011;10165;42.662;23.260;2024-02-21T04:43:29;8.03;;;5.27;;
20008;SDS011;10165;42.662;23.260;2024-02-21T04:45:55;8.10;;;5.40;;
20008;SDS011;10165;42.662;23.260;2024-02-21T04:48:22;8.77;;;5.27;;
20008;SDS011;10165;42.662;23.260;2024-02-21T04:50:49;7.10;;;4.93;;
20008;SDS011;10165;42.662;23.260;2024-02-21T04:53:15;11.70;;;7.00;;
20008;SDS011;10165;42.662;23.260;2024-02-21T04:55:42;8.53;;;5.73;;
20008;SDS011;10165;42.662;23.260;2024-02-21T04:58:09;8.07;;;5.67;;
20008;SDS011;10165;42.662;23.260;2024-02-21T05:00:36;8.97;;;5.27;;
20008;SDS011;10165;42.662;23.260;2024-02-21T05:03:02;7.90;;;4.73;;
20008;SDS011;10165;42.662;23.260;2024-02-21T05:05:29;9.13;;;5.80;;
20008;SDS011;10165;42.662;23.260;2024-02-21T05:07:56;9.80;;;5.03;;
20008;SDS011;10165;42.662;23.260;2024-02-21T05:10:23;9.10;;;5.60;;
20008;SDS011;10165;42.662;23.260;2024-02-21T05:12:50;9.13;;;5.43;;
20008;SDS011;10165;42.662;23.260;2024-02-21T05:15:16;11.97;;;5.87;;
20008;SDS011;10165;42.662;23.260;2024-02-21T05:17:43;6.60;;;4.83;;
20008;SDS011;10165;42.662;23.260;2024-02-21T05:20:10;11.00;;;5.90;;
20008;SDS011;10165;42.662;23.260;2024-02-21T05:22:37;11.30;;;6.53;;
20008;SDS011;10165;42.662;23.260;2024-02-21T05:25:04;8.17;;;5.67;;
20008;SDS011;10165;42.662;23.260;2024-02-21T05:27:31;8.73;;;5.70;;
20008;SDS011;10165;42.662;23.260;2024-02-21T05:29:57;11.60;;;6.20;;
20008;SDS011;10165;42.662;23.260;2024-02-21T05:32:25;8.60;;;4.80;;
20008;SDS011;10165;42.662;23.260;2024-02-21T05:34:52;11.63;;;5.70;;
20008;SDS011;10165;42.662;23.260;2024-02-21T05:37:19;7.47;;;5.10;;
20008;SDS011;10165;42.662;23.260;2024-02-21T05:39:46;9.30;;;5.23;;
20008;SDS011;10165;42.662;23.260;2024-02-21T05:42:17;7.70;;;4.83;;
20008;SDS011;10165;42.662;23.260;2024-02-21T05:44:48;8.83;;;5.17;;
20008;SDS011;10165;42.662;23.260;2024-02-21T05:47:15;10.33;;;5.43;;
20008;SDS011;10165;42.662;23.260;2024-02-21T05:49:42;11.23;;;5.50;;
20008;SDS011;10165;42.662;23.260;2024-02-21T05:52:09;7.40;;;4.60;;
20008;SDS011;10165;42.662;23.260;2024-02-21T05:54:37;8.23;;;4.93;;
20008;SDS011;10165;42.662;23.260;2024-02-21T05:57:07;8.33;;;5.07;;
20008;SDS011;10165;42.662;23.260;2024-02-21T05:59:34;9.40;;;5.50;;
20008;SDS011;10165;42.662;23.260;2024-02-21T06:02:03;10.00;;;5.83;;
20008;SDS011;10165;42.662;23.260;2024-02-21T06:04:30;29.63;;;9.93;;
20008;SDS011;10165;42.662;23.260;2024-02-21T06:06:57;29.23;;;10.03;;
20008;SDS011;10165;42.662;23.260;2024-02-21T06:09:24;11.27;;;6.40;;
20008;SDS011;10165;42.662;23.260;2024-02-21T06:11:51;15.13;;;8.00;;
20008;SDS011;10165;42.662;23.260;2024-02-21T06:14:18;25.27;;;10.77;;
20008;SDS011;10165;42.662;23.260;2024-02-21T06:16:44;11.50;;;6.47;;
20008;SDS011;10165;42.662;23.260;2024-02-21T06:19:11;13.90;;;7.33;;
20008;SDS011;10165;42.662;23.260;2024-02-21T06:21:38;12.97;;;7.10;;
20008;SDS011;10165;42.662;23.260;2024-02-21T06:24:05;12.43;;;6.93;;
20008;SDS011;10165;42.662;23.260;2024-02-21T06:26:31;12.50;;;7.53;;
20008;SDS011;10165;42.662;23.260;2024-02-21T06:28:58;10.70;;;6.10;;
20008;SDS011;10165;42.662;23.260;2024-02-21T06:31:27;10.40;;;6.37;;
20008;SDS011;10165;42.662;23.260;2024-02-21T06:33:54;12.90;;;5.60;;
20008;SDS011;10165;42.662;23.260;2024-02-21T06:36:21;9.77;;;5.67;;
20008;SDS011;10165;42.662;23.260;2024-02-21T06:38:48;10.37;;;6.20;;
20008;SDS011;10165;42.662;23.260;2024-02-21T06:41:15;11.43;;;6.70;;
20008;SDS011;10165;42.662;23.260;2024-02-21T06:43:43;9.70;;;6.93;;
20008;SDS011;10165;42.662;23.260;2024-02-21T06:46:09;11.43;;;6.50;;
20008;SDS011;10165;42.662;23.260;2024-02-21T06:48:36;11.00;;;7.47;;
20008;SDS011;10165;42.662;23.260;2024-02-21T06:51:03;10.33;;;6.50;;
20008;SDS011;10165;42.662;23.260;2024-02-21T06:53:30;9.77;;;5.70;;
20008;SDS011;10165;42.662;23.260;2024-02-21T06:55:57;7.53;;;5.10;;
20008;SDS011;10165;42.662;23.260;2024-02-21T06:58:24;10.37;;;5.93;;
20008;SDS011;10165;42.662;23.260;2024-02-21T07:00:51;9.80;;;6.60;;
20008;SDS011;10165;42.662;23.260;2024-02-21T07:03:18;7.40;;;5.27;;
20008;SDS011;10165;42.662;23.260;2024-02-21T07:05:44;13.70;;;7.43;;
20008;SDS011;10165;42.662;23.260;2024-02-21T07:08:11;9.87;;;6.53;;
20008;SDS011;10165;42.662;23.260;2024-02-21T07:10:38;12.07;;;6.97;;
20008;SDS011;10165;42.662;23.260;2024-02-21T07:13:05;11.07;;;6.00;;
20008;SDS011;10165;42.662;23.260;2024-02-21T07:15:31;17.43;;;7.77;;
20008;SDS011;10165;42.662;23.260;2024-02-21T07:17:59;9.43;;;5.33;;
20008;SDS011;10165;42.662;23.260;2024-02-21T07:20:26;9.27;;;5.87;;
20008;SDS011;10165;42.662;23.260;2024-02-21T07:22:52;11.07;;;6.53;;
20008;SDS011;10165;42.662;23.260;2024-02-21T07:25:19;13.13;;;6.77;;
20008;SDS011;10165;42.662;23.260;2024-02-21T07:27:46;12.87;;;6.70;;
20008;SDS011;10165;42.662;23.260;2024-02-21T07:30:13;14.97;;;7.87;;
20008;SDS011;10165;42.662;23.260;2024-02-21T07:32:43;10.77;;;6.23;;
20008;SDS011;10165;42.662;23.260;2024-02-21T07:35:10;11.47;;;6.63;;
20008;SDS011;10165;42.662;23.260;2024-02-21T07:37:38;13.90;;;6.90;;
20008;SDS011;10165;42.662;23.260;2024-02-21T07:40:14;11.47;;;6.87;;
20008;SDS011;10165;42.662;23.260;2024-02-21T07:42:43;10.67;;;6.27;;
20008;SDS011;10165;42.662;23.260;2024-02-21T07:45:15;16.50;;;7.17;;
20008;SDS011;10165;42.662;23.260;2024-02-21T07:47:42;13.23;;;7.73;;
20008;SDS011;10165;42.662;23.260;2024-02-21T07:50:08;11.03;;;6.77;;
20008;SDS011;10165;42.662;23.260;2024-02-21T07:52:35;12.80;;;7.40;;
20008;SDS011;10165;42.662;23.260;2024-02-21T07:55:02;11.90;;;6.93;;
20008;SDS011;10165;42.662;23.260;2024-02-21T07:57:29;10.70;;;6.33;;
20008;SDS011;10165;42.662;23.260;2024-02-21T07:59:56;12.77;;;6.43;;
20008;SDS011;10165;42.662;23.260;2024-02-21T08:02:23;13.93;;;7.13;;
20008;SDS011;10165;42.662;23.260;2024-02-21T08:04:49;12.47;;;6.47;;
20008;SDS011;10165;42.662;23.260;2024-02-21T08:07:16;11.90;;;6.37;;
20008;SDS011;10165;42.662;23.260;2024-02-21T08:09:43;15.83;;;5.97;;
20008;SDS011;10165;42.662;23.260;2024-02-21T08:12:10;10.53;;;6.93;;
20008;SDS011;10165;42.662;23.260;2024-02-21T08:14:36;12.87;;;7.17;;
20008;SDS011;10165;42.662;23.260;2024-02-21T08:17:03;14.97;;;6.83;;
20008;SDS011;10165;42.662;23.260;2024-02-21T08:19:30;14.60;;;7.47;;
20008;SDS011;10165;42.662;23.260;2024-02-21T08:21:57;11.23;;;6.80;;
20008;SDS011;10165;42.662;23.260;2024-02-21T08:24:24;13.20;;;7.07;;
20008;SDS011;10165;42.662;23.260;2024-02-21T08:26:50;12.90;;;6.47;;
20008;SDS011;10165;42.662;23.260;2024-02-21T08:29:17;9.70;;;6.07;;
20008;SDS011;10165;42.662;23.260;2024-02-21T08:31:44;13.00;;;5.97;;
20008;SDS011;10165;42.662;23.260;2024-02-21T08:34:11;11.60;;;6.27;;
20008;SDS011;10165;42.662;23.260;2024-02-21T08:36:40;9.47;;;6.17;;
20008;SDS011;10165;42.662;23.260;2024-02-21T08:39:06;9.43;;;6.40;;
20008;SDS011;10165;42.662;23.260;2024-02-21T08:41:36;7.57;;;4.90;;
20008;SDS011;10165;42.662;23.260;2024-02-21T08:44:24;8.50;;;5.67;;
20008;SDS011;10165;42.662;23.260;2024-02-21T08:46:54;8.43;;;5.40;;
20008;SDS011;10165;42.662;23.260;2024-02-21T08:49:22;8.90;;;5.93;;
20008;SDS011;10165;42.662;23.260;2024-02-21T08:51:50;7.50;;;4.93;;
20008;SDS011;10165;42.662;23.260;2024-02-21T08:54:17;9.83;;;5.73;;
20008;SDS011;10165;42.662;23.260;2024-02-21T08:56:44;9.93;;;5.40;;
20008;SDS011;10165;42.662;23.260;2024-02-21T08:59:11;14.07;;;6.10;;
20008;SDS011;10165;42.662;23.260;2024-02-21T09:01:37;8.07;;;5.80;;
20008;SDS011;10165;42.662;23.260;2024-02-21T09:04:04;6.60;;;5.17;;
20008;SDS011;10165;42.662;23.260;2024-02-21T09:06:31;8.17;;;5.60;;
20008;SDS011;10165;42.662;23.260;2024-02-21T09:09:00;8.10;;;5.23;;
20008;SDS011;10165;42.662;23.260;2024-02-21T09:11:27;8.07;;;4.90;;
20008;SDS011;10165;42.662;23.260;2024-02-21T09:13:54;8.67;;;5.40;;
20008;SDS011;10165;42.662;23.260;2024-02-21T09:16:21;10.03;;;5.53;;
20008;SDS011;10165;42.662;23.260;2024-02-21T09:18:50;8.33;;;5.03;;
20008;SDS011;10165;42.662;23.260;2024-02-21T09:21:17;9.90;;;5.63;;
20008;SDS011;10165;42.662;23.260;2024-02-21T09:23:43;10.30;;;5.77;;
20008;SDS011;10165;42.662;23.260;2024-02-21T09:26:11;10.43;;;5.63;;
20008;SDS011;10165;42.662;23.260;2024-02-21T09:28:40;6.77;;;4.77;;
20008;SDS011;10165;42.662;23.260;2024-02-21T09:31:08;14.03;;;6.43;;
20008;SDS011;10165;42.662;23.260;2024-02-21T09:33:35;8.80;;;5.70;;
20008;SDS011;10165;42.662;23.260;2024-02-21T09:36:02;7.60;;;4.93;;
20008;SDS011;10165;42.662;23.260;2024-02-21T09:38:28;6.07;;;4.53;;
20008;SDS011;10165;42.662;23.260;2024-02-21T09:43:52;8.60;;;5.00;;
20008;SDS011;10165;42.662;23.260;2024-02-21T09:46:57;10.33;;;6.00;;
20008;SDS011;10165;42.662;23.260;2024-02-21T09:49:32;8.00;;;5.17;;
20008;SDS011;10165;42.662;23.260;2024-02-21T09:52:05;9.60;;;5.40;;
20008;SDS011;10165;42.662;23.260;2024-02-21T09:54:35;11.47;;;5.80;;
20008;SDS011;10165;42.662;23.260;2024-02-21T09:57:03;7.17;;;5.20;;
20008;SDS011;10165;42.662;23.260;2024-02-21T09:59:31;9.00;;;5.20;;
20008;SDS011;10165;42.662;23.260;2024-02-21T10:01:59;6.50;;;4.73;;
20008;SDS011;10165;42.662;23.260;2024-02-21T10:04:27;8.07;;;5.27;;
20008;SDS011;10165;42.662;23.260;2024-02-21T10:06:55;6.70;;;4.83;;
20008;SDS011;10165;42.662;23.260;2024-02-21T10:09:23;9.80;;;4.73;;
20008;SDS011;10165;42.662;23.260;2024-02-21T10:11:54;7.87;;;4.20;;
20008;SDS011;10165;42.662;23.260;2024-02-21T10:14:38;8.97;;;4.40;;
20008;SDS011;10165;42.662;23.260;2024-02-21T10:17:05;7.90;;;4.57;;
20008;SDS011;10165;42.662;23.260;2024-02-21T10:19:37;8.20;;;5.13;;
20008;SDS011;10165;42.662;23.260;2024-02-21T10:22:07;5.83;;;4.17;;
20008;SDS011;10165;42.662;23.260;2024-02-21T10:24:35;8.77;;;4.50;;
20008;SDS011;10165;42.662;23.260;2024-02-21T10:27:08;9.50;;;4.70;;
20008;SDS011;10165;42.662;23.260;2024-02-21T10:29:38;5.83;;;3.90;;
20008;SDS011;10165;42.662;23.260;2024-02-21T10:32:05;9.77;;;5.17;;
20008;SDS011;10165;42.662;23.260;2024-02-21T10:34:35;5.93;;;3.77;;
20008;SDS011;10165;42.662;23.260;2024-02-21T10:37:03;6.50;;;4.30;;
20008;SDS011;10165;42.662;23.260;2024-02-21T10:39:32;6.43;;;4.60;;
20008;SDS011;10165;42.662;23.260;2024-02-21T10:42:00;10.77;;;4.67;;
20008;SDS011;10165;42.662;23.260;2024-02-21T10:44:32;6.00;;;4.40;;
20008;SDS011;10165;42.662;23.260;2024-02-21T10:46:59;6.87;;;3.83;;
20008;SDS011;10165;42.662;23.260;2024-02-21T10:49:30;5.17;;;3.90;;
20008;SDS011;10165;42.662;23.260;2024-02-21T10:52:15;5.33;;;3.93;;
20008;SDS011;10165;42.662;23.260;2024-02-21T10:54:55;5.07;;;3.30;;
20008;SDS011;10165;42.662;23.260;2024-02-21T10:57:29;5.47;;;3.90;;
20008;SDS011;10165;42.662;23.260;2024-02-21T10:59:58;6.07;;;4.27;;
20008;SDS011;10165;42.662;23.260;2024-02-21T11:02:26;7.53;;;3.90;;
20008;SDS011;10165;42.662;23.260;2024-02-21T11:04:55;5.50;;;3.17;;
20008;SDS011;10165;42.662;23.260;2024-02-21T11:07:22;8.73;;;4.63;;
20008;SDS011;10165;42.662;23.260;2024-02-21T11:09:52;5.20;;;3.47;;
20008;SDS011;10165;42.662;23.260;2024-02-21T11:12:22;4.67;;;3.20;;
20008;SDS011;10165;42.662;23.260;2024-02-21T11:14:50;6.27;;;3.83;;
20008;SDS011;10165;42.662;23.260;2024-02-21T11:17:19;7.17;;;3.10;;
20008;SDS011;10165;42.662;23.260;2024-02-21T11:19:53;4.57;;;3.13;;
20008;SDS011;10165;42.662;23.260;2024-02-21T11:22:21;3.97;;;3.00;;
20008;SDS011;10165;42.662;23.260;2024-02-21T11:24:51;5.17;;;3.43;;
20008;SDS011;10165;42.662;23.260;2024-02-21T11:27:21;4.77;;;3.50;;
20008;SDS011;10165;42.662;23.260;2024-02-21T11:29:58;8.63;;;3.43;;
20008;SDS011;10165;42.662;23.260;2024-02-21T11:32:26;3.23;;;2.73;;
20008;SDS011;10165;42.662;23.260;2024-02-21T11:34:56;5.40;;;2.80;;
20008;SDS011;10165;42.662;23.260;2024-02-21T11:37:34;7.97;;;3.70;;
20008;SDS011;10165;42.662;23.260;2024-02-21T11:40:04;4.70;;;3.03;;
20008;SDS011;10165;42.662;23.260;2024-02-21T11:42:33;3.83;;;2.93;;
20008;SDS011;10165;42.662;23.260;2024-02-21T11:45:00;5.97;;;3.60;;
20008;SDS011;10165;42.662;23.260;2024-02-21T11:47:30;4.03;;;2.90;;
20008;SDS011;10165;42.662;23.260;2024-02-21T11:49:57;4.53;;;3.00;;
20008;SDS011;10165;42.662;23.260;2024-02-21T11:52:24;4.73;;;3.40;;
20008;SDS011;10165;42.662;23.260;2024-02-21T11:54:53;10.60;;;4.37;;
20008;SDS011;10165;42.662;23.260;2024-02-21T11:57:22;4.60;;;3.10;;
20008;SDS011;10165;42.662;23.260;2024-02-21T11:59:49;3.73;;;2.60;;
20008;SDS011;10165;42.662;23.260;2024-02-21T12:02:24;5.40;;;3.03;;
20008;SDS011;10165;42.662;23.260;2024-02-21T12:04:51;3.67;;;3.00;;
20008;SDS011;10165;42.662;23.260;2024-02-21T12:07:18;3.80;;;2.63;;
20008;SDS011;10165;42.662;23.260;2024-02-21T12:09:45;4.37;;;3.27;;
20008;SDS011;10165;42.662;23.260;2024-02-21T12:12:12;3.73;;;2.77;;
20008;SDS011;10165;42.662;23.260;2024-02-21T12:14:39;5.20;;;2.70;;
20008;SDS011;10165;42.662;23.260;2024-02-21T12:17:07;4.07;;;2.73;;
20008;SDS011;10165;42.662;23.260;2024-02-21T12:19:34;6.90;;;3.20;;
20008;SDS011;10165;42.662;23.260;2024-02-21T12:22:01;4.43;;;3.33;;
20008;SDS011;10165;42.662;23.260;2024-02-21T12:24:32;4.73;;;3.30;;
20008;SDS011;10165;42.662;23.260;2024-02-21T12:26:59;5.70;;;3.37;;
20008;SDS011;10165;42.662;23.260;2024-02-21T12:29:30;10.23;;;3.77;;
20008;SDS011;10165;42.662;23.260;2024-02-21T12:31:56;4.67;;;2.93;;
20008;SDS011;10165;42.662;23.260;2024-02-21T12:34:23;5.43;;;3.50;;
20008;SDS011;10165;42.662;23.260;2024-02-21T12:36:54;15.30;;;4.33;;
20008;SDS011;10165;42.662;23.260;2024-02-21T12:39:20;6.43;;;2.87;;
20008;SDS011;10165;42.662;23.260;2024-02-21T12:41:47;3.43;;;2.60;;
20008;SDS011;10165;42.662;23.260;2024-02-21T12:44:13;33.43;;;12.93;;
20008;SDS011;10165;42.662;23.260;2024-02-21T12:46:40;8.87;;;4.90;;
20008;SDS011;10165;42.662;23.260;2024-02-21T12:49:07;5.20;;;3.33;;
20008;SDS011;10165;42.662;23.260;2024-02-21T12:51:34;6.57;;;3.70;;
20008;SDS011;10165;42.662;23.260;2024-02-21T12:54:01;4.93;;;3.13;;
20008;SDS011;10165;42.662;23.260;2024-02-21T12:56:31;5.37;;;4.20;;
20008;SDS011;10165;42.662;23.260;2024-02-21T12:58:57;5.43;;;3.53;;
20008;SDS011;10165;42.662;23.260;2024-02-21T13:01:24;4.23;;;3.30;;
20008;SDS011;10165;42.662;23.260;2024-02-21T13:03:51;4.53;;;2.97;;
20008;SDS011;10165;42.662;23.260;2024-02-21T13:06:17;4.77;;;2.70;;
20008;SDS011;10165;42.662;23.260;2024-02-21T13:08:45;5.77;;;2.97;;
20008;SDS011;10165;42.662;23.260;2024-02-21T13:11:12;3.43;;;2.83;;
20008;SDS011;10165;42.662;23.260;2024-02-21T13:13:39;3.07;;;2.57;;
20008;SDS011;10165;42.662;23.260;2024-02-21T13:16:06;4.27;;;3.20;;
20008;SDS011;10165;42.662;23.260;2024-02-21T13:18:34;5.17;;;3.70;;
20008;SDS011;10165;42.662;23.260;2024-02-21T13:21:01;5.57;;;3.60;;
20008;SDS011;10165;42.662;23.260;2024-02-21T13:23:28;8.27;;;3.97;;
20008;SDS011;10165;42.662;23.260;2024-02-21T13:25:55;8.50;;;4.20;;
20008;SDS011;10165;42.662;23.260;2024-02-21T13:28:22;6.23;;;4.20;;
20008;SDS011;10165;42.662;23.260;2024-02-21T13:30:49;7.77;;;4.53;;
20008;SDS011;10165;42.662;23.260;2024-02-21T13:33:15;7.67;;;4.33;;
20008;SDS011;10165;42.662;23.260;2024-02-21T13:35:42;4.63;;;3.70;;
20008;SDS011;10165;42.662;23.260;2024-02-21T13:38:09;7.60;;;3.07;;
20008;SDS011;10165;42.662;23.260;2024-02-21T13:40:36;4.73;;;3.33;;
20008;SDS011;10165;42.662;23.260;2024-02-21T13:43:03;3.90;;;2.60;;
20008;SDS011;10165;42.662;23.260;2024-02-21T13:45:30;3.27;;;2.90;;
20008;SDS011;10165;42.662;23.260;2024-02-21T13:47:57;4.00;;;2.70;;
20008;SDS011;10165;42.662;23.260;2024-02-21T13:50:30;4.03;;;2.90;;
20008;SDS011;10165;42.662;23.260;2024-02-21T13:52:57;4.33;;;2.93;;
20008;SDS011;10165;42.662;23.260;2024-02-21T13:55:24;4.20;;;3.10;;
20008;SDS011;10165;42.662;23.260;2024-02-21T13:57:54;5.50;;;3.87;;
20008;SDS011;10165;42.662;23.260;2024-02-21T14:00:21;8.67;;;4.03;;
20008;SDS011;10165;42.662;23.260;2024-02-21T14:02:47;6.33;;;4.23;;
20008;SDS011;10165;42.662;23.260;2024-02-21T14:05:14;7.73;;;4.03;;
20008;SDS011;10165;42.662;23.260;2024-02-21T14:07:41;5.33;;;4.07;;
20008;SDS011;10165;42.662;23.260;2024-02-21T14:10:08;6.27;;;4.17;;
20008;SDS011;10165;42.662;23.260;2024-02-21T14:12:36;6.10;;;3.50;;
20008;SDS011;10165;42.662;23.260;2024-02-21T14:15:03;6.10;;;3.87;;
20008;SDS011;10165;42.662;23.260;2024-02-21T14:17:30;9.87;;;4.70;;
20008;SDS011;10165;42.662;23.260;2024-02-21T14:19:57;5.73;;;3.83;;
20008;SDS011;10165;42.662;23.260;2024-02-21T14:22:23;4.37;;;3.57;;
20008;SDS011;10165;42.662;23.260;2024-02-21T14:24:50;6.80;;;3.90;;
20008;SDS011;10165;42.662;23.260;2024-02-21T14:27:17;7.07;;;3.63;;
20008;SDS011;10165;42.662;23.260;2024-02-21T14:29:43;6.43;;;4.00;;
20008;SDS011;10165;42.662;23.260;2024-02-21T14:32:10;6.67;;;4.33;;
20008;SDS011;10165;42.662;23.260;2024-02-21T14:34:39;7.37;;;5.00;;
20008;SDS011;10165;42.662;23.260;2024-02-21T14:37:06;6.57;;;4.40;;